Aviation Digital Data Service (ADDS)

Output produced by TAFs form (1003 UTC 23 April 2017)
found at http://www.aviationweather.gov/adds/tafs/
 
METAR text: RODN 230958Z AUTO 07007KT 10SM CLR 20/14 A2999 RMK AO2 SLP162 T02040144
Conditions at: RODN (KADENA (USAFB-NA, JP) observed 0958 UTC 23 April 2017
Temperature: 20.4°C (69°F)
Dewpoint: 14.4°C (58°F) [RH = 68%]
Pressure (altimeter): 29.99 inches Hg (1015.7 mb)
[Sea-level pressure: 1016.2 mb]
Winds: from the ENE (70 degrees) at 8 MPH (7 knots; 3.6 m/s)
Visibility: 10 or more miles (16+ km)
Ceiling: at least 12,000 feet AGL
Clouds: sky clear below 12,000 feet AGL
Weather: automated observation with no human augmentation;
there may or may not be significant weather present at this time

Forecast for: RODN (KADENA (USAFB-NA, JP)
Text: TAF RODN 230900Z 2309/2415 06012KT 9999 SCT030 QNH2997INS WND 09009 AFT 2318 TX27/2406Z TN18/2321Z
Forecast period: 0900 UTC 23 April 2017 to 1500 UTC 24 April 2017
Forecast type: FROM: standard forecast or significant change
Winds: from the ENE (60 degrees) at 14 MPH (12 knots; 6.2 m/s)
Visibility: 6 or more miles (10+ km)
Clouds: scattered clouds at 3000 feet AGL
Weather: no significant weather forecast for this period